createdAt,value
2018-06-27T00:00:47.833Z,15.10
2018-06-27T00:03:15.648Z,15.30
2018-06-27T00:05:43.470Z,15.30
2018-06-27T00:08:12.755Z,14.70
2018-06-27T00:10:40.592Z,14.70
2018-06-27T00:13:08.396Z,14.70
2018-06-27T00:15:36.249Z,14.60
2018-06-27T00:18:04.030Z,15.20
2018-06-27T00:20:31.795Z,14.70
2018-06-27T00:22:59.696Z,15.20
2018-06-27T00:25:27.581Z,15.00
2018-06-27T00:27:55.933Z,14.80
2018-06-27T00:30:24.086Z,15.10
2018-06-27T00:32:52.358Z,14.60
2018-06-27T00:35:20.692Z,14.70
2018-06-27T00:37:48.492Z,14.80
2018-06-27T00:40:16.605Z,14.80
2018-06-27T00:42:44.568Z,14.60
2018-06-27T00:47:40.034Z,14.80
2018-06-27T00:50:08.858Z,14.80
2018-06-27T00:52:36.626Z,14.60
2018-06-27T00:55:04.682Z,14.70
2018-06-27T00:57:32.537Z,15.20
2018-06-27T01:00:00.362Z,14.50
2018-06-27T01:02:28.167Z,14.70
2018-06-27T01:04:55.948Z,15.10
2018-06-27T01:07:23.880Z,14.70
2018-06-27T01:09:51.976Z,14.50
2018-06-27T01:12:19.776Z,14.50
2018-06-27T01:14:47.695Z,14.50
2018-06-27T01:17:15.524Z,14.40
2018-06-27T01:19:43.441Z,14.20
2018-06-27T01:22:11.552Z,14.50
2018-06-27T01:24:39.445Z,14.50
2018-06-27T01:27:07.271Z,14.40
2018-06-27T01:29:35.236Z,14.30
2018-06-27T01:32:03.939Z,14.20
2018-06-27T01:34:31.705Z,14.30
2018-06-27T01:36:59.517Z,14.00
2018-06-27T01:39:27.307Z,14.10
2018-06-27T01:41:55.083Z,14.70
2018-06-27T01:44:22.891Z,14.30
2018-06-27T01:46:50.716Z,14.10
2018-06-27T01:49:18.476Z,14.10
2018-06-27T01:51:46.259Z,14.10
2018-06-27T01:54:14.141Z,14.10
2018-06-27T01:56:41.900Z,14.10
2018-06-27T01:59:09.672Z,14.20
2018-06-27T02:01:37.511Z,14.20
2018-06-27T02:04:05.395Z,14.20
2018-06-27T02:06:33.164Z,14.10
2018-06-27T02:09:00.956Z,14.10
2018-06-27T02:11:28.779Z,14.10
2018-06-27T02:13:56.575Z,13.80
2018-06-27T02:16:24.354Z,13.60
2018-06-27T02:18:52.084Z,13.80
2018-06-27T02:21:19.860Z,13.60
2018-06-27T02:23:47.700Z,13.60
2018-06-27T02:26:15.493Z,13.60
2018-06-27T02:28:43.333Z,13.70
2018-06-27T02:31:11.116Z,13.50
2018-06-27T02:33:38.896Z,13.60
2018-06-27T02:36:06.657Z,13.70
2018-06-27T02:38:34.424Z,13.50
2018-06-27T02:41:02.257Z,13.60
2018-06-27T02:45:57.691Z,13.60
2018-06-27T02:48:25.464Z,13.70
2018-06-27T02:55:48.566Z,13.50
2018-06-27T02:58:16.336Z,13.50
2018-06-27T03:00:44.189Z,13.70
2018-06-27T03:03:11.969Z,13.60
2018-06-27T03:05:39.777Z,13.30
2018-06-27T03:08:07.577Z,13.60
2018-06-27T03:10:35.361Z,13.50
2018-06-27T03:13:03.208Z,13.20
2018-06-27T03:15:31.008Z,13.60
2018-06-27T03:17:58.788Z,13.60
2018-06-27T03:20:26.610Z,13.10
2018-06-27T03:22:54.416Z,13.20
2018-06-27T03:25:22.233Z,13.20
2018-06-27T03:30:17.680Z,13.20
2018-06-27T03:32:45.463Z,13.20
2018-06-27T03:35:13.239Z,13.20
2018-06-27T03:37:40.991Z,13.30
2018-06-27T03:40:08.753Z,13.10
2018-06-27T03:42:36.540Z,13.20
2018-06-27T03:45:04.330Z,13.20
2018-06-27T03:47:32.116Z,13.20
2018-06-27T03:52:27.570Z,13.50
2018-06-27T03:54:55.359Z,13.40
2018-06-27T03:57:23.146Z,13.20
2018-06-27T03:59:50.953Z,13.50
2018-06-27T04:02:18.704Z,13.40
2018-06-27T04:04:46.489Z,13.70
2018-06-27T04:07:14.280Z,13.50
2018-06-27T04:09:42.110Z,13.60
2018-06-27T04:12:09.908Z,13.70
2018-06-27T04:14:37.678Z,14.00
2018-06-27T04:17:05.690Z,13.60
2018-06-27T04:19:33.457Z,14.10
2018-06-27T04:22:01.339Z,14.10
2018-06-27T04:24:29.108Z,14.10
2018-06-27T04:26:57.017Z,14.00
2018-06-27T04:29:24.874Z,14.20
2018-06-27T04:31:52.655Z,14.40
2018-06-27T04:34:20.550Z,14.40
2018-06-27T04:36:48.360Z,14.60
2018-06-27T04:39:16.311Z,14.10
2018-06-27T04:41:44.130Z,14.70
2018-06-27T04:44:12.878Z,14.40
2018-06-27T04:46:41.081Z,14.50
2018-06-27T04:49:08.982Z,14.70
2018-06-27T04:51:36.773Z,14.70
2018-06-27T04:54:04.640Z,14.60
2018-06-27T04:56:32.807Z,14.60
2018-06-27T04:59:00.980Z,15.00
2018-06-27T05:01:28.880Z,14.60
2018-06-27T05:03:57.152Z,14.70
2018-06-27T05:06:24.960Z,15.10
2018-06-27T05:08:52.747Z,14.90
2018-06-27T05:11:20.621Z,15.20
2018-06-27T05:13:48.613Z,15.00
2018-06-27T05:16:16.424Z,15.00
2018-06-27T05:18:45.051Z,15.20
2018-06-27T05:21:12.847Z,15.20
2018-06-27T05:23:42.120Z,15.30
2018-06-27T05:26:09.956Z,15.10
2018-06-27T05:28:38.149Z,15.10
2018-06-27T05:31:06.131Z,15.20
2018-06-27T05:33:33.952Z,15.60
2018-06-27T05:36:01.900Z,15.80
2018-06-27T05:38:30.706Z,15.30
2018-06-27T05:40:58.573Z,15.70
2018-06-27T05:43:27.281Z,15.60
2018-06-27T05:45:55.132Z,15.40
2018-06-27T05:48:22.961Z,15.90
2018-06-27T05:50:50.741Z,15.70
2018-06-27T05:53:18.608Z,15.90
2018-06-27T05:55:46.444Z,15.90
2018-06-27T05:58:14.258Z,16.00
2018-06-27T06:00:42.032Z,15.90
2018-06-27T06:03:09.876Z,16.00
2018-06-27T06:05:37.788Z,16.20
2018-06-27T06:08:05.605Z,16.40
2018-06-27T06:10:33.828Z,16.40
2018-06-27T06:13:01.888Z,16.60
2018-06-27T06:15:30.069Z,16.70
2018-06-27T06:17:57.979Z,16.50
2018-06-27T06:20:25.792Z,16.50
2018-06-27T06:22:53.996Z,16.50
2018-06-27T06:25:21.875Z,17.00
2018-06-27T06:27:49.795Z,16.90
2018-06-27T06:30:17.636Z,17.30
2018-06-27T06:32:45.988Z,17.40
2018-06-27T06:35:13.799Z,17.20
2018-06-27T06:37:41.941Z,17.30
2018-06-27T06:40:09.823Z,17.20
2018-06-27T06:42:37.578Z,17.70
2018-06-27T06:45:05.531Z,18.00
2018-06-27T06:50:01.121Z,18.00
2018-06-27T06:52:28.948Z,17.80
2018-06-27T06:54:56.764Z,18.10
2018-06-27T06:57:24.587Z,18.30
2018-06-27T06:59:52.442Z,18.50
2018-06-27T07:02:20.262Z,18.70
2018-06-27T07:04:48.272Z,19.00
2018-06-27T07:07:16.104Z,19.00
2018-06-27T07:14:39.704Z,19.20
2018-06-27T07:17:07.672Z,19.20
2018-06-27T07:19:35.461Z,19.10
2018-06-27T07:22:03.440Z,19.40
2018-06-27T07:24:31.959Z,19.60
2018-06-27T07:27:00.035Z,19.60
2018-06-27T07:29:28.204Z,19.90
2018-06-27T07:31:56.521Z,19.50
2018-06-27T07:34:24.651Z,19.40
2018-06-27T07:36:52.580Z,19.90
2018-06-27T07:39:20.446Z,19.60
2018-06-27T07:41:48.328Z,20.00
2018-06-27T07:44:16.279Z,20.20
2018-06-27T07:46:44.396Z,20.40
2018-06-27T07:49:12.239Z,20.40
2018-06-27T07:51:40.521Z,20.10
2018-06-27T07:54:08.416Z,20.50
2018-06-27T07:56:36.342Z,21.00
2018-06-27T07:59:04.304Z,21.20
2018-06-27T08:01:32.212Z,21.50
2018-06-27T08:04:00.044Z,21.50
2018-06-27T08:06:33.542Z,21.60
2018-06-27T08:09:01.783Z,22.10
2018-06-27T08:11:29.652Z,22.30
2018-06-27T08:13:57.661Z,22.40
2018-06-27T08:16:26.216Z,22.70
2018-06-27T08:23:49.339Z,23.00
2018-06-27T08:26:17.494Z,23.40
2018-06-27T08:28:45.674Z,23.30
2018-06-27T08:31:13.456Z,23.60
2018-06-27T08:33:41.203Z,23.90
2018-06-27T08:36:09.085Z,24.60
2018-06-27T08:38:37.240Z,25.70
2018-06-27T08:41:05.494Z,25.30
2018-06-27T08:43:34.335Z,25.70
2018-06-27T08:50:57.692Z,27.10
2018-06-27T08:53:25.632Z,29.00
2018-06-27T08:55:54.347Z,30.50
2018-06-27T08:58:22.249Z,30.70
2018-06-27T09:00:50.171Z,32.00
2018-06-27T09:03:18.083Z,32.30
2018-06-27T09:05:45.958Z,32.70
2018-06-27T09:10:41.438Z,33.80
2018-06-27T09:13:09.336Z,33.70
2018-06-27T09:15:37.212Z,33.90
2018-06-27T09:18:05.452Z,34.10
2018-06-27T09:20:33.271Z,34.20
2018-06-27T09:23:01.182Z,33.60
2018-06-27T09:25:29.019Z,34.10
2018-06-27T09:27:56.792Z,33.00
2018-06-27T09:30:24.569Z,34.10
2018-06-27T09:32:52.300Z,34.90
2018-06-27T09:35:20.162Z,34.40
2018-06-27T09:37:47.956Z,34.80
2018-06-27T09:40:15.744Z,35.30
2018-06-27T09:45:11.165Z,34.60
2018-06-27T09:47:38.952Z,34.30
2018-06-27T09:50:07.039Z,33.30
2018-06-27T09:52:34.840Z,33.40
2018-06-27T09:55:02.714Z,33.20
2018-06-27T09:57:30.495Z,33.50
2018-06-27T09:59:58.251Z,34.80
2018-06-27T10:02:26.039Z,35.40
2018-06-27T10:04:53.824Z,35.60
2018-06-27T10:07:21.616Z,35.00
2018-06-27T10:09:49.420Z,34.70
2018-06-27T10:12:17.224Z,33.90
2018-06-27T10:14:44.988Z,32.70
2018-06-27T10:17:12.800Z,32.90
2018-06-27T10:19:40.545Z,33.90
2018-06-27T10:22:08.341Z,34.50
2018-06-27T10:24:36.096Z,33.80
2018-06-27T10:27:03.977Z,33.20
2018-06-27T10:31:59.480Z,33.20
2018-06-27T10:34:27.255Z,33.60
2018-06-27T10:39:23.072Z,35.00
2018-06-27T10:41:50.852Z,34.90
2018-06-27T10:44:18.638Z,32.10
2018-06-27T10:46:46.412Z,32.10
2018-06-27T10:51:41.949Z,33.90
2018-06-27T10:54:09.727Z,35.30
2018-06-27T10:56:37.460Z,35.40
2018-06-27T10:59:05.249Z,34.40
2018-06-27T11:06:28.373Z,34.20
2018-06-27T11:08:56.100Z,35.90
2018-06-27T11:11:23.885Z,35.50
2018-06-27T11:13:51.620Z,34.50
2018-06-27T11:16:19.406Z,34.40
2018-06-27T11:21:15.641Z,35.80
2018-06-27T11:23:43.536Z,35.70
2018-06-27T11:26:11.276Z,35.90
2018-06-27T11:28:39.104Z,34.50
2018-06-27T11:31:06.892Z,33.30
2018-06-27T11:36:02.285Z,32.90
2018-06-27T11:38:30.227Z,32.50
2018-06-27T11:40:57.946Z,31.70
2018-06-27T11:45:53.364Z,29.50
2018-06-27T11:48:21.168Z,29.40
2018-06-27T11:50:49.042Z,30.90
2018-06-27T11:53:16.968Z,32.90
2018-06-27T11:55:44.740Z,34.10
2018-06-27T11:58:12.610Z,35.80
2018-06-27T12:00:40.439Z,36.40
2018-06-27T12:03:08.196Z,34.00
2018-06-27T12:05:35.960Z,32.00
2018-06-27T12:08:03.840Z,30.90
2018-06-27T12:10:31.673Z,30.50
2018-06-27T12:12:59.464Z,30.60
2018-06-27T12:15:27.209Z,31.00
2018-06-27T12:17:54.972Z,30.70
2018-06-27T12:20:22.817Z,31.80
2018-06-27T12:25:18.212Z,33.00
2018-06-27T12:27:45.948Z,32.70
2018-06-27T12:30:18.197Z,34.30
2018-06-27T12:32:45.976Z,34.10
2018-06-27T12:35:13.764Z,34.40
2018-06-27T12:37:41.504Z,34.30
2018-06-27T12:40:09.468Z,34.20
2018-06-27T12:42:37.261Z,33.70
2018-06-27T12:45:06.865Z,33.00
2018-06-27T12:47:34.740Z,33.40
2018-06-27T12:50:02.553Z,34.40
2018-06-27T12:55:02.380Z,34.90
2018-06-27T12:57:31.398Z,34.60
2018-06-27T12:59:59.444Z,34.90
2018-06-27T13:02:27.440Z,35.50
2018-06-27T13:04:55.296Z,35.70
2018-06-27T13:07:23.052Z,35.20
2018-06-27T13:09:50.848Z,34.90
2018-06-27T13:12:18.593Z,34.80
2018-06-27T13:14:46.367Z,34.50
2018-06-27T13:17:14.188Z,32.70
2018-06-27T13:22:09.599Z,32.70
2018-06-27T13:24:37.332Z,33.10
2018-06-27T13:27:05.508Z,32.70
2018-06-27T13:29:33.279Z,32.70
2018-06-27T13:32:01.271Z,32.60
2018-06-27T13:34:29.068Z,32.70
2018-06-27T13:36:56.869Z,33.00
2018-06-27T13:39:24.626Z,32.70
2018-06-27T13:41:52.420Z,32.20
2018-06-27T13:44:20.185Z,31.50
2018-06-27T13:46:48.006Z,32.00
2018-06-27T13:49:15.788Z,32.30
2018-06-27T13:51:43.604Z,31.70
2018-06-27T13:54:11.429Z,31.30
2018-06-27T13:56:39.242Z,31.30
2018-06-27T14:01:34.709Z,31.90
2018-06-27T14:04:02.885Z,31.70
2018-06-27T14:06:30.685Z,32.10
2018-06-27T14:08:58.400Z,32.40
2018-06-27T14:11:26.154Z,32.10
2018-06-27T14:13:53.946Z,31.70
2018-06-27T14:16:22.024Z,31.70
2018-06-27T14:18:50.010Z,32.30
2018-06-27T14:21:17.965Z,32.20
2018-06-27T14:23:46.375Z,32.00
2018-06-27T14:26:14.148Z,32.20
2018-06-27T14:28:42.312Z,31.40
2018-06-27T14:31:10.629Z,31.00
2018-06-27T14:33:38.869Z,30.60
2018-06-27T14:36:06.928Z,31.40
2018-06-27T14:38:34.716Z,31.90
2018-06-27T14:43:30.721Z,31.80
2018-06-27T14:45:59.744Z,31.90
2018-06-27T14:48:27.565Z,31.60
2018-06-27T14:50:55.346Z,31.40
2018-06-27T14:53:24.005Z,31.00
2018-06-27T14:55:51.773Z,30.90
2018-06-27T14:58:19.585Z,30.40
2018-06-27T15:00:47.432Z,30.80
2018-06-27T15:03:15.240Z,30.30
2018-06-27T15:05:43.051Z,30.30
2018-06-27T15:08:10.849Z,30.00
2018-06-27T15:10:38.962Z,30.20
2018-06-27T15:13:06.781Z,29.70
2018-06-27T15:15:34.553Z,29.50
2018-06-27T15:20:30.048Z,29.00
2018-06-27T15:25:25.600Z,28.80
2018-06-27T15:27:53.367Z,28.40
2018-06-27T15:30:21.156Z,28.50
2018-06-27T15:32:49.112Z,28.60
2018-06-27T15:35:16.956Z,28.50
2018-06-27T15:37:44.794Z,28.80
2018-06-27T15:40:12.485Z,28.40
2018-06-27T15:42:40.285Z,28.30
2018-06-27T15:47:35.697Z,28.00
2018-06-27T15:50:03.597Z,28.60
2018-06-27T15:52:31.435Z,28.50
2018-06-27T15:54:59.159Z,28.20
2018-06-27T15:57:26.897Z,28.20
2018-06-27T15:59:55.749Z,27.90
2018-06-27T16:02:23.661Z,28.30
2018-06-27T16:04:51.484Z,28.30
2018-06-27T16:09:48.065Z,28.40
2018-06-27T16:12:15.888Z,28.40
2018-06-27T16:14:43.630Z,28.40
2018-06-27T16:17:11.489Z,27.60
2018-06-27T16:19:39.194Z,27.80
2018-06-27T16:22:07.028Z,27.50
2018-06-27T16:24:34.971Z,27.90
2018-06-27T16:27:02.845Z,27.70
2018-06-27T16:29:30.722Z,27.40
2018-06-27T16:34:26.392Z,27.50
2018-06-27T16:36:54.226Z,27.00
2018-06-27T16:39:22.033Z,27.40
2018-06-27T16:41:49.826Z,27.50
2018-06-27T16:44:17.636Z,27.40
2018-06-27T16:46:45.424Z,27.30
2018-06-27T16:49:13.271Z,27.30
2018-06-27T16:51:41.595Z,27.00
2018-06-27T16:54:09.389Z,27.30
2018-06-27T16:56:37.204Z,26.80
2018-06-27T17:01:33.005Z,26.70
2018-06-27T17:04:00.636Z,26.70
2018-06-27T17:06:28.467Z,26.60
2018-06-27T17:08:56.260Z,26.60
2018-06-27T17:11:24.059Z,26.30
2018-06-27T17:13:51.864Z,26.60
2018-06-27T17:18:47.304Z,25.90
2018-06-27T17:21:16.176Z,26.40
2018-06-27T17:23:44.053Z,26.40
2018-06-27T17:26:12.017Z,26.00
2018-06-27T17:28:39.829Z,26.40
2018-06-27T17:31:07.767Z,25.70
2018-06-27T17:33:35.608Z,26.20
2018-06-27T17:36:03.736Z,26.00
2018-06-27T17:38:31.545Z,25.80
2018-06-27T17:40:59.360Z,25.80
2018-06-27T17:43:27.151Z,25.90
2018-06-27T17:45:55.027Z,25.70
2018-06-27T17:48:22.844Z,25.90
2018-06-27T17:50:50.648Z,25.60
2018-06-27T17:53:18.496Z,25.80
2018-06-27T17:55:46.321Z,25.90
2018-06-27T18:00:41.820Z,26.00
2018-06-27T18:03:09.633Z,25.80
2018-06-27T18:05:37.485Z,25.70
2018-06-27T18:10:33.029Z,26.10
2018-06-27T18:13:01.008Z,25.20
2018-06-27T18:15:28.882Z,25.60
2018-06-27T18:17:57.741Z,25.60
2018-06-27T18:22:53.327Z,25.40
2018-06-27T18:25:21.245Z,25.20
2018-06-27T18:27:49.413Z,25.00
2018-06-27T18:30:17.272Z,24.90
2018-06-27T18:32:45.212Z,25.20
2018-06-27T18:35:13.069Z,25.00
2018-06-27T18:37:41.016Z,24.80
2018-06-27T18:40:09.475Z,24.90
2018-06-27T18:42:37.285Z,24.90
2018-06-27T18:45:06.537Z,24.70
2018-06-27T18:47:34.334Z,24.70
2018-06-27T18:50:02.160Z,24.10
2018-06-27T18:52:30.019Z,23.90
2018-06-27T18:57:25.684Z,24.30
2018-06-27T18:59:53.444Z,23.90
2018-06-27T19:02:21.329Z,24.20
2018-06-27T19:04:49.153Z,23.90
2018-06-27T19:07:16.999Z,23.90
2018-06-27T19:09:44.920Z,24.40
2018-06-27T19:12:13.048Z,24.10
2018-06-27T19:14:41.012Z,24.00
2018-06-27T19:17:08.851Z,23.70
2018-06-27T19:19:36.693Z,23.70
2018-06-27T19:22:04.560Z,23.70
2018-06-27T19:24:32.332Z,23.80
2018-06-27T19:27:00.108Z,23.80
2018-06-27T19:29:27.972Z,23.80
2018-06-27T19:31:55.828Z,23.40
2018-06-27T19:34:23.666Z,23.40
2018-06-27T19:36:52.421Z,23.30
2018-06-27T19:39:20.188Z,23.10
2018-06-27T19:41:48.000Z,23.10
2018-06-27T19:44:15.780Z,23.10
2018-06-27T19:46:43.520Z,23.10
2018-06-27T19:49:11.315Z,22.90
2018-06-27T19:51:39.104Z,23.00
2018-06-27T19:54:06.874Z,22.90
2018-06-27T19:56:34.648Z,22.50
2018-06-27T19:59:02.536Z,22.70
2018-06-27T20:01:30.344Z,22.50
2018-06-27T20:03:58.157Z,22.30
2018-06-27T20:06:25.935Z,22.60
2018-06-27T20:08:53.764Z,22.50
2018-06-27T20:11:21.956Z,22.00
2018-06-27T20:13:49.809Z,22.10
2018-06-27T20:16:17.522Z,22.10
2018-06-27T20:23:40.820Z,21.90
2018-06-27T20:26:08.680Z,21.90
2018-06-27T20:28:36.458Z,21.60
2018-06-27T20:31:04.321Z,21.60
2018-06-27T20:33:32.089Z,21.70
2018-06-27T20:35:59.899Z,21.60
2018-06-27T20:38:27.664Z,21.00
2018-06-27T20:40:55.425Z,21.40
2018-06-27T20:43:23.402Z,21.10
2018-06-27T20:45:51.168Z,21.00
2018-06-27T20:48:18.949Z,20.90
2018-06-27T20:50:46.748Z,20.90
2018-06-27T20:53:14.584Z,21.00
2018-06-27T20:55:42.324Z,21.00
2018-06-27T20:58:10.114Z,21.20
2018-06-27T21:00:37.852Z,20.70
2018-06-27T21:03:05.624Z,20.40
2018-06-27T21:05:33.461Z,20.60
2018-06-27T21:08:01.354Z,20.50
2018-06-27T21:12:56.732Z,20.30
2018-06-27T21:15:24.512Z,20.60
2018-06-27T21:17:52.263Z,20.60
2018-06-27T21:20:20.052Z,20.20
2018-06-27T21:22:47.920Z,20.50
2018-06-27T21:25:15.696Z,20.20
2018-06-27T21:27:43.815Z,20.00
2018-06-27T21:32:39.274Z,20.30
2018-06-27T21:35:07.065Z,20.20
2018-06-27T21:37:34.893Z,20.10
2018-06-27T21:40:02.745Z,20.10
2018-06-27T21:42:30.565Z,20.40
2018-06-27T21:44:58.432Z,20.20
2018-06-27T21:47:26.284Z,20.10
2018-06-27T21:49:54.094Z,20.30
2018-06-27T21:54:49.484Z,20.10
2018-06-27T21:57:17.278Z,19.70
2018-06-27T21:59:45.068Z,20.20
2018-06-27T22:04:40.659Z,20.10
2018-06-27T22:07:08.518Z,20.00
2018-06-27T22:09:36.279Z,20.00
2018-06-27T22:12:04.195Z,20.00
2018-06-27T22:14:31.947Z,19.90
2018-06-27T22:16:59.737Z,20.00
2018-06-27T22:19:27.580Z,20.10
2018-06-27T22:21:55.364Z,20.40
2018-06-27T22:24:23.165Z,20.40
2018-06-27T22:26:50.979Z,20.10
2018-06-27T22:29:18.756Z,20.40
2018-06-27T22:31:46.719Z,20.40
2018-06-27T22:39:10.981Z,20.20
2018-06-27T22:41:39.306Z,20.40
2018-06-27T22:44:07.093Z,20.40
2018-06-27T22:46:35.497Z,20.30
2018-06-27T22:49:03.331Z,20.20
2018-06-27T22:51:31.143Z,20.10
2018-06-27T22:53:58.991Z,20.00
2018-06-27T22:56:26.780Z,20.20
2018-06-27T22:58:54.620Z,20.10
2018-06-27T23:01:22.392Z,19.80
2018-06-27T23:03:50.209Z,20.20
2018-06-27T23:06:18.044Z,19.80
2018-06-27T23:08:45.824Z,19.90
2018-06-27T23:11:13.632Z,19.80
2018-06-27T23:13:41.396Z,19.70
2018-06-27T23:16:09.241Z,19.50
2018-06-27T23:21:04.632Z,19.70
2018-06-27T23:23:32.405Z,19.70
2018-06-27T23:26:00.168Z,19.30
2018-06-27T23:28:27.920Z,19.40
2018-06-27T23:30:55.692Z,19.40
2018-06-27T23:33:23.462Z,19.60
2018-06-27T23:35:51.284Z,19.50
2018-06-27T23:38:19.065Z,19.20
2018-06-27T23:40:46.830Z,19.40
2018-06-27T23:43:14.620Z,19.60
2018-06-27T23:45:42.348Z,19.50
2018-06-27T23:48:10.100Z,19.20
2018-06-27T23:50:37.887Z,19.10
2018-06-27T23:53:05.632Z,19.10
2018-06-27T23:55:33.424Z,19.00
2018-06-27T23:58:01.231Z,19.30
